Terminal Aerodrome Forecast
Issued by NWS

Home | Current Version | Previous Version | Text Only | Print | Product List | Glossary On
Versions: 1 2 3 4 5 6 7 8 9 10 11 12
000
FTUS42 TJSJ 041152
TAFKPK
TAF
TKPK 041152Z 0412/0512 07011KT P6SM SCT018
     FM041300 08010KT P6SM VCSH SCT018 BKN050
     FM042330 07006KT P6SM VCSH FEW018=

USA.gov is the U.S. government's official web portal to all federal, state and local government web resources and services.